createdAt,value
2018-01-20T00:01:55.571Z,7.67
2018-01-20T00:04:25.141Z,6.20
2018-01-20T00:06:54.705Z,6.30
2018-01-20T00:09:29.995Z,5.47
2018-01-20T00:12:02.477Z,5.40
2018-01-20T00:14:31.964Z,5.07
2018-01-20T00:17:01.640Z,4.70
2018-01-20T00:19:31.415Z,4.30
2018-01-20T00:22:05.554Z,4.70
2018-01-20T00:24:40.713Z,3.70
2018-01-20T00:27:16.434Z,3.33
2018-01-20T00:29:45.981Z,3.50
2018-01-20T00:32:15.548Z,3.30
2018-01-20T00:34:45.053Z,3.60
2018-01-20T00:37:14.924Z,2.90
2018-01-20T00:39:51.459Z,2.80
2018-01-20T00:42:21.008Z,3.47
2018-01-20T00:44:50.553Z,2.67
2018-01-20T00:47:20.720Z,2.43
2018-01-20T00:49:51.016Z,3.30
2018-01-20T00:52:21.445Z,2.27
2018-01-20T00:54:50.952Z,2.27
2018-01-20T00:57:20.450Z,2.20
2018-01-20T00:59:50.213Z,2.20
2018-01-20T01:02:19.934Z,1.80
2018-01-20T01:04:50.199Z,2.00
2018-01-20T01:07:19.705Z,2.27
2018-01-20T01:09:49.231Z,2.17
2018-01-20T01:12:18.737Z,2.40
2018-01-20T01:14:48.283Z,1.90
2018-01-20T01:17:17.764Z,1.90
2018-01-20T01:19:50.437Z,2.17
2018-01-20T01:22:27.738Z,1.50
2018-01-20T01:24:57.287Z,1.80
2018-01-20T01:27:27.242Z,1.93
2018-01-20T01:29:56.770Z,1.70
2018-01-20T01:32:33.929Z,1.93
2018-01-20T01:35:09.322Z,2.00
2018-01-20T01:37:39.008Z,3.30
2018-01-20T01:40:08.792Z,2.10
2018-01-20T01:42:38.329Z,2.33
2018-01-20T01:45:08.193Z,2.53
2018-01-20T01:47:37.720Z,2.07
2018-01-20T01:50:08.202Z,2.40
2018-01-20T01:52:37.868Z,1.90
2018-01-20T01:55:07.413Z,1.80
2018-01-20T01:57:36.976Z,2.20
2018-01-20T02:00:09.660Z,2.27
2018-01-20T02:02:39.676Z,2.13
2018-01-20T02:05:09.230Z,2.13
2018-01-20T02:07:38.749Z,2.03
2018-01-20T02:10:08.327Z,1.67
2018-01-20T02:12:37.844Z,1.80
2018-01-20T02:15:07.371Z,2.10
2018-01-20T02:17:36.943Z,1.80
2018-01-20T02:20:06.465Z,1.60
2018-01-20T02:22:36.025Z,1.77
2018-01-20T02:25:05.713Z,2.27
2018-01-20T02:27:35.416Z,2.20
2018-01-20T02:30:05.024Z,2.40
2018-01-20T02:32:34.608Z,2.70
2018-01-20T02:35:04.191Z,1.93
2018-01-20T02:37:33.802Z,2.40
2018-01-20T02:40:07.690Z,2.10
2018-01-20T02:42:37.553Z,2.40
2018-01-20T02:45:07.244Z,2.13
2018-01-20T02:47:36.792Z,2.33
2018-01-20T02:50:06.329Z,1.90
2018-01-20T02:52:35.867Z,2.27
2018-01-20T02:55:05.673Z,2.20
2018-01-20T02:57:35.301Z,2.20
2018-01-20T03:00:04.883Z,2.10
2018-01-20T03:02:34.529Z,2.07
2018-01-20T03:05:04.118Z,2.30
2018-01-20T03:07:33.702Z,2.13
2018-01-20T03:10:03.261Z,2.67
2018-01-20T03:12:39.881Z,2.00
2018-01-20T03:15:09.608Z,2.50
2018-01-20T03:17:39.171Z,1.83
2018-01-20T03:20:08.649Z,2.10
2018-01-20T03:22:38.165Z,1.70
2018-01-20T03:25:07.684Z,2.37
2018-01-20T03:27:37.290Z,1.67
2018-01-20T03:30:06.868Z,1.80
2018-01-20T03:32:36.813Z,1.60
2018-01-20T03:35:06.432Z,2.07
2018-01-20T03:37:36.087Z,1.80
2018-01-20T03:40:05.642Z,1.83
2018-01-20T03:42:35.282Z,2.00
2018-01-20T03:45:04.922Z,2.00
2018-01-20T03:47:53.732Z,1.90
2018-01-20T03:50:23.247Z,1.83
2018-01-20T03:52:52.815Z,2.37
2018-01-20T03:55:22.469Z,2.33
2018-01-20T03:57:51.943Z,1.87
2018-01-20T04:00:21.493Z,2.10
2018-01-20T04:02:51.154Z,1.40
2018-01-20T04:05:20.770Z,1.80
2018-01-20T04:07:53.865Z,1.77
2018-01-20T04:10:23.409Z,1.90
2018-01-20T04:12:52.984Z,1.80
2018-01-20T04:15:22.755Z,1.90
2018-01-20T04:17:52.956Z,1.90
2018-01-20T04:20:22.482Z,1.70
2018-01-20T04:22:52.006Z,1.80
2018-01-20T04:25:21.625Z,1.80
2018-01-20T04:27:51.167Z,1.53
2018-01-20T04:30:23.640Z,2.00
2018-01-20T04:32:53.129Z,1.87
2018-01-20T04:35:22.645Z,1.80
2018-01-20T04:37:52.174Z,1.70
2018-01-20T04:40:34.264Z,1.90
2018-01-20T04:43:04.048Z,1.80
2018-01-20T04:45:33.770Z,1.63
2018-01-20T04:48:04.511Z,1.73
2018-01-20T04:50:34.068Z,2.20
2018-01-20T04:53:03.623Z,2.10
2018-01-20T04:55:33.171Z,2.00
2018-01-20T04:58:02.702Z,2.57
2018-01-20T05:00:32.181Z,2.07
2018-01-20T05:03:01.719Z,1.90
2018-01-20T05:05:31.260Z,2.63
2018-01-20T05:08:01.563Z,2.60
2018-01-20T05:10:31.080Z,2.30
2018-01-20T05:13:00.577Z,2.10
2018-01-20T05:15:30.098Z,1.70
2018-01-20T05:17:59.669Z,1.87
2018-01-20T05:20:29.229Z,2.40
2018-01-20T05:23:11.108Z,3.33
2018-01-20T05:25:40.657Z,4.23
2018-01-20T05:28:10.405Z,5.47
2018-01-20T05:30:39.893Z,3.07
2018-01-20T05:33:09.660Z,2.70
2018-01-20T05:35:40.908Z,2.87
2018-01-20T05:38:10.459Z,4.77
2018-01-20T05:40:39.937Z,3.83
2018-01-20T05:43:09.439Z,4.83
2018-01-20T05:45:51.240Z,2.60
2018-01-20T05:48:20.793Z,3.07
2018-01-20T05:51:01.961Z,3.00
2018-01-20T05:53:32.053Z,4.87
2018-01-20T05:56:01.598Z,4.27
2018-01-20T05:58:44.977Z,4.20
2018-01-20T06:01:14.892Z,2.43
2018-01-20T06:03:44.427Z,2.17
2018-01-20T06:06:15.118Z,3.97
2018-01-20T06:08:44.685Z,2.87
2018-01-20T06:11:15.523Z,2.73
2018-01-20T06:13:45.064Z,2.60
2018-01-20T06:16:16.420Z,2.00
2018-01-20T06:18:45.929Z,2.97
2018-01-20T06:21:15.751Z,2.53
2018-01-20T06:23:45.323Z,2.43
2018-01-20T06:26:14.816Z,3.10
2018-01-20T06:28:44.374Z,2.47
2018-01-20T06:31:13.885Z,2.00
2018-01-20T06:33:43.926Z,3.00
2018-01-20T06:36:13.461Z,4.20
2018-01-20T06:38:45.429Z,3.17
2018-01-20T06:41:14.978Z,3.10
2018-01-20T06:43:44.572Z,4.70
2018-01-20T06:46:14.183Z,3.33
2018-01-20T06:48:44.065Z,4.97
2018-01-20T06:51:13.977Z,2.60
2018-01-20T06:53:43.584Z,3.83
2018-01-20T06:56:13.562Z,3.30
2018-01-20T06:58:49.614Z,2.87
2018-01-20T07:01:19.177Z,4.00
2018-01-20T07:03:48.773Z,4.63
2018-01-20T07:06:18.276Z,5.00
2018-01-20T07:08:47.833Z,4.00
2018-01-20T07:11:28.637Z,4.20
2018-01-20T07:13:58.910Z,3.40
2018-01-20T07:16:34.770Z,2.67
2018-01-20T07:19:04.366Z,5.10
2018-01-20T07:21:33.937Z,3.40
2018-01-20T07:24:03.504Z,4.33
2018-01-20T07:26:33.056Z,4.40
2018-01-20T07:29:02.605Z,4.10
2018-01-20T07:31:32.619Z,3.63
2018-01-20T07:34:02.490Z,3.17
2018-01-20T07:36:36.786Z,3.60
2018-01-20T07:39:06.273Z,3.33
2018-01-20T07:41:35.821Z,3.87
2018-01-20T07:44:05.380Z,3.70
2018-01-20T07:46:34.945Z,3.70
2018-01-20T07:49:05.839Z,5.33
2018-01-20T07:51:38.841Z,3.47
2018-01-20T07:54:08.401Z,3.40
2018-01-20T07:56:37.884Z,2.70
2018-01-20T07:59:07.425Z,4.23
2018-01-20T08:01:36.988Z,3.30
2018-01-20T08:04:06.550Z,4.90
2018-01-20T08:06:37.807Z,3.83
2018-01-20T08:09:07.343Z,2.93
2018-01-20T08:11:45.357Z,3.20
2018-01-20T08:14:14.929Z,2.80
2018-01-20T08:16:44.437Z,2.83
2018-01-20T08:19:14.104Z,2.47
2018-01-20T08:21:44.053Z,3.87
2018-01-20T08:24:20.058Z,1.97
2018-01-20T08:26:49.599Z,2.97
2018-01-20T08:29:19.148Z,3.77
2018-01-20T08:31:50.482Z,3.30
2018-01-20T08:34:20.484Z,2.83
2018-01-20T08:36:50.030Z,3.60
2018-01-20T08:39:19.545Z,4.57
2018-01-20T08:41:49.133Z,3.77
2018-01-20T08:44:18.635Z,2.33
2018-01-20T08:46:48.156Z,2.73
2018-01-20T08:49:18.360Z,2.67
2018-01-20T08:51:48.788Z,2.23
2018-01-20T08:54:18.403Z,1.97
2018-01-20T08:56:48.674Z,2.17
2018-01-20T08:59:26.908Z,1.63
2018-01-20T09:01:56.460Z,1.50
2018-01-20T09:04:26.251Z,1.10
2018-01-20T09:06:56.893Z,0.90
2018-01-20T09:09:26.661Z,2.00
2018-01-20T09:11:58.650Z,1.13
2018-01-20T09:14:28.511Z,1.30
2018-01-20T09:16:59.005Z,0.80
2018-01-20T09:19:28.558Z,1.10
2018-01-20T09:21:58.093Z,0.90
2018-01-20T09:24:30.719Z,1.00
2018-01-20T09:27:00.196Z,1.10
2018-01-20T09:29:29.722Z,1.30
2018-01-20T09:32:07.357Z,1.53
2018-01-20T09:34:36.837Z,1.50
2018-01-20T09:37:06.367Z,1.20
2018-01-20T09:39:35.912Z,1.30
2018-01-20T09:42:05.470Z,1.40
2018-01-20T09:44:35.003Z,1.20
2018-01-20T09:47:04.551Z,1.20
2018-01-20T09:49:34.093Z,0.83
2018-01-20T09:52:03.712Z,1.10
2018-01-20T09:54:39.851Z,1.97
2018-01-20T09:57:09.336Z,1.40
2018-01-20T09:59:45.342Z,1.40
2018-01-20T10:02:14.921Z,1.57
2018-01-20T10:04:48.043Z,1.53
2018-01-20T10:07:22.151Z,1.43
2018-01-20T10:10:08.814Z,1.40
2018-01-20T10:12:40.241Z,1.33
2018-01-20T10:15:10.959Z,1.30
2018-01-20T10:17:40.517Z,1.23
2018-01-20T10:20:10.075Z,1.17
2018-01-20T10:22:39.577Z,1.40
2018-01-20T10:25:09.685Z,1.70
2018-01-20T10:27:39.604Z,1.20
2018-01-20T10:30:15.444Z,1.50
2018-01-20T10:32:44.988Z,1.63
2018-01-20T10:35:14.476Z,1.87
2018-01-20T10:37:44.003Z,1.07
2018-01-20T10:40:13.545Z,1.87
2018-01-20T10:42:43.067Z,1.60
2018-01-20T10:45:12.616Z,1.40
2018-01-20T10:47:42.147Z,1.47
2018-01-20T10:50:11.692Z,1.70
2018-01-20T10:52:41.231Z,1.90
2018-01-20T10:55:11.302Z,2.43
2018-01-20T10:57:41.407Z,2.50
2018-01-20T11:00:11.164Z,2.43
2018-01-20T11:02:42.533Z,2.70
2018-01-20T11:05:12.078Z,1.80
2018-01-20T11:07:54.755Z,1.93
2018-01-20T11:10:24.801Z,2.13
2018-01-20T11:12:54.369Z,2.40
2018-01-20T11:15:23.839Z,2.30
2018-01-20T11:17:53.377Z,1.70
2018-01-20T11:20:32.249Z,1.70
2018-01-20T11:23:01.805Z,1.97
2018-01-20T11:25:33.492Z,2.00
2018-01-20T11:28:03.369Z,1.80
2018-01-20T11:30:32.901Z,2.10
2018-01-20T11:33:02.434Z,1.60
2018-01-20T11:35:31.990Z,1.60
2018-01-20T11:38:01.585Z,2.00
2018-01-20T11:40:31.166Z,2.07
2018-01-20T11:43:00.725Z,2.40
2018-01-20T11:45:30.828Z,2.00
2018-01-20T11:48:00.364Z,1.70
2018-01-20T11:50:29.964Z,1.90
2018-01-20T11:52:59.554Z,2.27
2018-01-20T11:55:29.084Z,2.00
2018-01-20T11:57:58.609Z,2.13
2018-01-20T12:00:28.187Z,1.80
2018-01-20T12:02:58.691Z,2.23
2018-01-20T12:05:28.532Z,1.90
2018-01-20T12:07:58.907Z,2.20
2018-01-20T12:10:28.419Z,2.87
2018-01-20T12:12:57.929Z,2.00
2018-01-20T12:15:28.225Z,2.30
2018-01-20T12:17:57.839Z,2.13
2018-01-20T12:20:27.424Z,2.27
2018-01-20T12:22:57.049Z,2.53
2018-01-20T12:25:26.667Z,2.23
2018-01-20T12:27:56.239Z,2.03
2018-01-20T12:30:30.529Z,1.73
2018-01-20T12:33:04.562Z,3.43
2018-01-20T12:35:40.294Z,1.80
2018-01-20T12:38:11.043Z,2.60
2018-01-20T12:40:40.734Z,2.23
2018-01-20T12:43:13.983Z,2.50
2018-01-20T12:45:48.817Z,2.60
2018-01-20T12:48:19.704Z,2.23
2018-01-20T12:50:49.279Z,2.33
2018-01-20T12:53:18.821Z,2.50
2018-01-20T12:55:50.899Z,2.80
2018-01-20T12:58:20.482Z,2.53
2018-01-20T13:00:50.424Z,2.20
2018-01-20T13:03:20.743Z,3.60
2018-01-20T13:05:50.280Z,3.60
2018-01-20T13:08:20.033Z,2.63
2018-01-20T13:10:49.901Z,3.20
2018-01-20T13:13:19.502Z,2.67
2018-01-20T13:15:49.196Z,2.30
2018-01-20T13:18:20.496Z,3.27
2018-01-20T13:20:51.991Z,2.63
2018-01-20T13:23:36.093Z,3.20
2018-01-20T13:26:07.385Z,3.40
2018-01-20T13:28:37.177Z,2.70
2018-01-20T13:31:10.328Z,2.77
2018-01-20T13:33:39.909Z,2.47
2018-01-20T13:36:09.495Z,2.43
2018-01-20T13:38:39.049Z,2.67
2018-01-20T13:41:08.556Z,2.10
2018-01-20T13:43:38.436Z,3.93
2018-01-20T13:46:09.919Z,2.30
2018-01-20T13:48:39.955Z,2.40
2018-01-20T13:51:09.810Z,2.50
2018-01-20T13:53:39.385Z,2.30
2018-01-20T13:56:09.369Z,1.90
2018-01-20T13:58:38.884Z,3.07
2018-01-20T14:01:08.636Z,2.23
2018-01-20T14:03:38.134Z,1.87
2018-01-20T14:06:07.687Z,2.30
2018-01-20T14:08:37.557Z,3.30
2018-01-20T14:11:19.904Z,2.37
2018-01-20T14:13:50.004Z,2.57
2018-01-20T14:16:19.649Z,2.43
2018-01-20T14:18:49.241Z,2.17
2018-01-20T14:21:23.543Z,3.77
2018-01-20T14:23:56.777Z,2.13
2018-01-20T14:26:26.404Z,3.20
2018-01-20T14:28:55.969Z,2.37
2018-01-20T14:31:25.568Z,3.57
2018-01-20T14:33:55.377Z,2.60
2018-01-20T14:36:24.889Z,2.93
2018-01-20T14:38:54.490Z,3.60
2018-01-20T14:41:24.919Z,2.77
2018-01-20T14:43:54.461Z,4.00
2018-01-20T14:46:24.308Z,1.80
2018-01-20T14:48:53.926Z,1.90
2018-01-20T14:51:23.455Z,1.90
2018-01-20T14:53:53.017Z,1.97
2018-01-20T14:56:22.530Z,1.90
2018-01-20T14:58:52.096Z,1.50
2018-01-20T15:01:22.444Z,2.23
2018-01-20T15:03:51.955Z,2.33
2018-01-20T15:06:22.395Z,1.70
2018-01-20T15:08:53.589Z,1.47
2018-01-20T15:11:23.364Z,2.27
2018-01-20T15:13:53.187Z,2.13
2018-01-20T15:16:30.573Z,1.97
2018-01-20T15:19:10.940Z,1.20
2018-01-20T15:21:40.809Z,1.60
2018-01-20T15:24:11.291Z,1.70
2018-01-20T15:26:40.881Z,1.80
2018-01-20T15:29:10.420Z,1.90
2018-01-20T15:31:40.213Z,1.70
2018-01-20T15:34:10.121Z,1.93
2018-01-20T15:36:39.697Z,1.70
2018-01-20T15:39:09.288Z,1.60
2018-01-20T15:41:39.250Z,1.80
2018-01-20T15:44:09.081Z,1.90
2018-01-20T15:46:38.673Z,1.70
2018-01-20T15:49:09.837Z,1.80
2018-01-20T15:51:39.475Z,1.57
2018-01-20T15:54:10.120Z,1.70
2018-01-20T15:56:40.548Z,1.40
2018-01-20T15:59:10.353Z,1.90
2018-01-20T16:01:40.240Z,1.50
2018-01-20T16:04:09.961Z,1.67
2018-01-20T16:06:39.508Z,2.20
2018-01-20T16:09:09.053Z,1.60
2018-01-20T16:11:38.560Z,1.77
2018-01-20T16:14:08.272Z,2.33
2018-01-20T16:16:37.819Z,1.40
2018-01-20T16:19:16.821Z,2.07
2018-01-20T16:21:46.443Z,1.93
2018-01-20T16:24:16.219Z,2.20
2018-01-20T16:26:46.714Z,1.67
2018-01-20T16:29:16.428Z,1.50
2018-01-20T16:31:47.534Z,1.53
2018-01-20T16:34:17.049Z,1.90
2018-01-20T16:36:46.831Z,1.70
2018-01-20T16:39:16.601Z,1.87
2018-01-20T16:41:47.074Z,2.10
2018-01-20T16:44:16.668Z,2.30
2018-01-20T16:46:46.428Z,2.20
2018-01-20T16:49:16.229Z,1.80
2018-01-20T16:51:45.772Z,2.30
2018-01-20T16:54:22.972Z,1.70
2018-01-20T16:56:53.336Z,1.73
2018-01-20T16:59:22.869Z,1.90
2018-01-20T17:01:52.670Z,2.10
2018-01-20T17:04:22.205Z,2.20
2018-01-20T17:06:51.812Z,1.97
2018-01-20T17:09:21.436Z,2.60
2018-01-20T17:11:55.767Z,2.60
2018-01-20T17:14:25.697Z,2.00
2018-01-20T17:16:55.560Z,2.30
2018-01-20T17:19:25.093Z,2.50
2018-01-20T17:21:55.401Z,2.20
2018-01-20T17:24:25.056Z,2.30
2018-01-20T17:26:54.592Z,2.43
2018-01-20T17:29:24.395Z,2.43
2018-01-20T17:31:54.161Z,2.53
2018-01-20T17:34:24.143Z,3.00
2018-01-20T17:36:53.680Z,2.87
2018-01-20T17:39:23.235Z,2.10
2018-01-20T17:41:52.789Z,2.23
2018-01-20T17:44:22.351Z,1.90
2018-01-20T17:46:51.928Z,1.50
2018-01-20T17:49:21.456Z,1.93
2018-01-20T17:51:51.421Z,1.90
2018-01-20T17:54:21.032Z,1.93
2018-01-20T17:56:50.622Z,1.97
2018-01-20T17:59:22.811Z,2.03
2018-01-20T18:01:52.652Z,2.10
2018-01-20T18:04:22.155Z,1.90
2018-01-20T18:06:51.673Z,1.70
2018-01-20T18:09:21.703Z,1.50
2018-01-20T18:11:52.099Z,1.90
2018-01-20T18:14:21.592Z,1.83
2018-01-20T18:16:51.135Z,1.80
2018-01-20T18:19:20.924Z,2.13
2018-01-20T18:21:50.481Z,1.63
2018-01-20T18:24:19.989Z,1.60
2018-01-20T18:26:49.667Z,1.70
2018-01-20T18:29:19.219Z,1.20
2018-01-20T18:31:49.824Z,1.20
2018-01-20T18:34:19.355Z,1.40
2018-01-20T18:36:49.353Z,1.23
2018-01-20T18:39:19.576Z,1.60
2018-01-20T18:41:49.085Z,1.40
2018-01-20T18:44:18.628Z,1.77
2018-01-20T18:46:48.157Z,1.50
2018-01-20T18:49:18.705Z,1.60
2018-01-20T18:51:48.515Z,1.37
2018-01-20T18:54:18.004Z,1.80
2018-01-20T18:56:47.524Z,1.30
2018-01-20T18:59:18.677Z,1.77
2018-01-20T19:01:48.369Z,1.80
2018-01-20T19:04:27.227Z,1.80
2018-01-20T19:06:57.562Z,1.60
2018-01-20T19:09:27.101Z,1.30
2018-01-20T19:11:56.612Z,1.67
2018-01-20T19:14:26.165Z,1.40
2018-01-20T19:16:57.383Z,1.53
2018-01-20T19:19:26.925Z,1.47
2018-01-20T19:21:56.505Z,1.70
2018-01-20T19:24:26.150Z,2.10
2018-01-20T19:26:55.709Z,1.50
2018-01-20T19:29:39.069Z,1.50
2018-01-20T19:32:10.953Z,1.20
2018-01-20T19:34:40.509Z,1.93
2018-01-20T19:37:10.080Z,1.70
2018-01-20T19:39:39.564Z,1.40
2018-01-20T19:42:09.062Z,1.77
2018-01-20T19:44:38.561Z,1.50
2018-01-20T19:47:08.497Z,1.90
2018-01-20T19:49:38.159Z,1.37
2018-01-20T19:52:15.385Z,1.60
2018-01-20T19:54:46.561Z,1.53
2018-01-20T19:57:16.540Z,1.67
2018-01-20T19:59:46.322Z,1.40
2018-01-20T20:02:20.613Z,2.20
2018-01-20T20:04:50.299Z,1.50
2018-01-20T20:07:21.064Z,1.93
2018-01-20T20:09:51.045Z,2.03
2018-01-20T20:12:20.765Z,1.87
2018-01-20T20:14:50.767Z,1.47
2018-01-20T20:17:20.500Z,1.80
2018-01-20T20:19:50.950Z,1.73
2018-01-20T20:22:20.468Z,2.37
2018-01-20T20:24:50.391Z,1.63
2018-01-20T20:27:20.151Z,2.43
2018-01-20T20:29:50.844Z,1.57
2018-01-20T20:32:20.641Z,1.67
2018-01-20T20:34:50.564Z,1.63
2018-01-20T20:37:21.144Z,1.77
2018-01-20T20:39:50.641Z,1.67
2018-01-20T20:42:20.276Z,1.40
2018-01-20T20:44:49.819Z,1.70
2018-01-20T20:47:19.887Z,1.93
2018-01-20T20:49:49.403Z,1.40
2018-01-20T20:52:19.073Z,1.83
2018-01-20T20:54:49.029Z,2.67
2018-01-20T20:57:19.105Z,1.80
2018-01-20T20:59:50.853Z,1.73
2018-01-20T21:02:20.804Z,2.10
2018-01-20T21:04:50.429Z,2.53
2018-01-20T21:07:19.993Z,1.70
2018-01-20T21:09:49.523Z,1.50
2018-01-20T21:12:19.088Z,1.43
2018-01-20T21:14:48.728Z,1.30
2018-01-20T21:17:18.257Z,1.57
2018-01-20T21:19:47.811Z,1.10
2018-01-20T21:22:17.723Z,1.20
2018-01-20T21:24:47.322Z,1.30
2018-01-20T21:27:16.808Z,1.50
2018-01-20T21:29:46.464Z,1.50
2018-01-20T21:32:15.967Z,1.43
2018-01-20T21:34:46.868Z,1.27
2018-01-20T21:37:16.416Z,1.90
2018-01-20T21:39:46.161Z,1.50
2018-01-20T21:42:17.313Z,1.20
2018-01-20T21:44:55.479Z,1.00
2018-01-20T21:47:25.111Z,1.40
2018-01-20T21:49:54.775Z,1.17
2018-01-20T21:52:24.334Z,1.20
2018-01-20T21:54:53.997Z,1.10
2018-01-20T21:57:35.665Z,1.50
2018-01-20T22:00:05.239Z,1.00
2018-01-20T22:02:34.793Z,1.30
2018-01-20T22:05:04.442Z,1.40
2018-01-20T22:07:34.619Z,1.00
2018-01-20T22:10:04.200Z,1.03
2018-01-20T22:12:33.686Z,1.23
2018-01-20T22:15:03.196Z,1.30
2018-01-20T22:17:33.399Z,1.10
2018-01-20T22:20:03.384Z,1.57
2018-01-20T22:22:41.332Z,1.30
2018-01-20T22:25:10.873Z,1.30
2018-01-20T22:27:40.602Z,1.40
2018-01-20T22:30:10.236Z,1.30
2018-01-20T22:32:43.566Z,1.80
2018-01-20T22:35:13.437Z,1.10
2018-01-20T22:37:43.641Z,1.63
2018-01-20T22:40:13.586Z,1.13
2018-01-20T22:42:43.135Z,1.40
2018-01-20T22:45:12.621Z,1.23
2018-01-20T22:47:42.101Z,1.10
2018-01-20T22:50:13.544Z,1.13
2018-01-20T22:52:43.219Z,2.00
2018-01-20T22:55:13.727Z,2.57
2018-01-20T22:57:43.313Z,1.33
2018-01-20T23:00:12.992Z,1.67
2018-01-20T23:02:42.553Z,2.00
2018-01-20T23:05:12.062Z,1.20
2018-01-20T23:07:41.577Z,1.30
2018-01-20T23:10:11.253Z,1.30
2018-01-20T23:12:40.893Z,2.60
2018-01-20T23:15:10.440Z,1.20
2018-01-20T23:17:40.006Z,1.40
2018-01-20T23:20:10.293Z,1.33
2018-01-20T23:22:39.831Z,1.30
2018-01-20T23:25:09.380Z,1.20
2018-01-20T23:27:38.924Z,1.33
2018-01-20T23:30:08.518Z,1.30
2018-01-20T23:32:51.953Z,1.20
2018-01-20T23:35:21.508Z,1.77
2018-01-20T23:37:52.344Z,1.10
2018-01-20T23:40:22.027Z,1.37
2018-01-20T23:42:59.439Z,1.33
2018-01-20T23:45:29.888Z,1.30
2018-01-20T23:48:11.533Z,1.10
2018-01-20T23:50:41.490Z,1.17
2018-01-20T23:53:19.628Z,1.83
2018-01-20T23:55:49.271Z,1.27
2018-01-20T23:58:18.817Z,1.93
